createdAt,value
2018-09-15T00:01:59.140Z,65.76
2018-09-15T00:04:27.698Z,66.45
2018-09-15T00:06:56.322Z,66.43
2018-09-15T00:09:24.882Z,66.88
2018-09-15T00:11:53.480Z,67.26
2018-09-15T00:14:22.057Z,67.95
2018-09-15T00:16:50.672Z,67.36
2018-09-15T00:19:19.241Z,67.34
2018-09-15T00:21:47.841Z,67.13
2018-09-15T00:24:16.389Z,67.09
2018-09-15T00:26:44.946Z,66.75
2018-09-15T00:29:13.565Z,66.68
2018-09-15T00:31:42.444Z,66.34
2018-09-15T00:34:11.009Z,66.60
2018-09-15T00:36:39.624Z,66.49
2018-09-15T00:39:10.536Z,66.59
2018-09-15T00:41:39.103Z,66.51
2018-09-15T00:44:07.880Z,65.90
2018-09-15T00:46:36.450Z,65.29
2018-09-15T00:49:05.132Z,65.35
2018-09-15T00:51:34.187Z,65.43
2018-09-15T00:54:02.744Z,65.30
2018-09-15T00:56:31.404Z,64.63
2018-09-15T00:58:59.967Z,65.02
2018-09-15T01:01:32.928Z,64.52
2018-09-15T01:04:02.886Z,64.74
2018-09-15T01:06:31.455Z,63.75
2018-09-15T01:09:00.256Z,63.98
2018-09-15T01:11:28.923Z,63.39
2018-09-15T01:13:57.944Z,63.74
2018-09-15T01:16:26.616Z,63.52
2018-09-15T01:18:55.160Z,62.97
2018-09-15T01:21:23.739Z,63.50
2018-09-15T01:23:52.400Z,63.48
2018-09-15T01:26:20.940Z,62.95
2018-09-15T01:28:51.287Z,62.43
2018-09-15T01:31:22.407Z,63.07
2018-09-15T01:33:51.361Z,63.01
2018-09-15T01:36:19.909Z,63.12
2018-09-15T01:38:48.976Z,62.63
2018-09-15T01:41:17.563Z,63.01
2018-09-15T01:43:46.108Z,62.89
2018-09-15T01:46:15.007Z,62.69
2018-09-15T01:48:44.427Z,62.92
2018-09-15T01:51:13.017Z,63.07
2018-09-15T01:53:41.723Z,62.82
2018-09-15T01:56:10.295Z,62.67
2018-09-15T01:58:38.835Z,62.26
2018-09-15T02:01:07.427Z,62.70
2018-09-15T02:03:35.975Z,62.30
2018-09-15T02:06:04.638Z,62.90
2018-09-15T02:08:33.244Z,62.66
2018-09-15T02:11:01.803Z,62.40
2018-09-15T02:13:30.351Z,62.50
2018-09-15T02:15:59.038Z,61.91
2018-09-15T02:18:27.591Z,61.90
2018-09-15T02:20:56.147Z,62.15
2018-09-15T02:23:24.820Z,61.95
2018-09-15T02:25:53.366Z,61.60
2018-09-15T02:28:21.923Z,61.46
2018-09-15T02:30:50.571Z,62.06
2018-09-15T02:33:19.129Z,61.54
2018-09-15T02:35:47.675Z,61.63
2018-09-15T02:38:16.344Z,62.10
2018-09-15T02:40:44.899Z,61.60
2018-09-15T02:43:13.623Z,61.95
2018-09-15T02:45:42.287Z,61.74
2018-09-15T02:48:10.892Z,61.83
2018-09-15T02:50:39.443Z,61.47
2018-09-15T02:53:08.079Z,62.06
2018-09-15T02:55:36.644Z,61.89
2018-09-15T02:58:05.243Z,61.73
2018-09-15T03:00:33.858Z,61.82
2018-09-15T03:03:02.399Z,61.62
2018-09-15T03:05:30.966Z,61.78
2018-09-15T03:07:59.636Z,61.66
2018-09-15T03:10:28.205Z,61.46
2018-09-15T03:12:56.776Z,61.41
2018-09-15T03:15:25.679Z,61.22
2018-09-15T03:17:54.424Z,61.53
2018-09-15T03:20:22.979Z,61.67
2018-09-15T03:22:51.648Z,61.08
2018-09-15T03:25:20.207Z,61.76
2018-09-15T03:27:48.784Z,61.09
2018-09-15T03:30:17.367Z,61.57
2018-09-15T03:32:45.912Z,61.69
2018-09-15T03:35:14.460Z,61.37
2018-09-15T03:37:43.119Z,61.05
2018-09-15T03:40:11.712Z,61.43
2018-09-15T03:42:40.448Z,61.39
2018-09-15T03:45:09.162Z,60.96
2018-09-15T03:47:37.764Z,61.33
2018-09-15T03:50:06.556Z,61.52
2018-09-15T03:52:35.696Z,61.37
2018-09-15T03:55:04.302Z,61.32
2018-09-15T03:57:32.855Z,61.64
2018-09-15T04:00:01.464Z,61.89
2018-09-15T04:02:30.024Z,61.79
2018-09-15T04:04:58.579Z,61.84
2018-09-15T04:07:27.239Z,61.77
2018-09-15T04:09:55.795Z,61.73
2018-09-15T04:12:24.360Z,62.08
2018-09-15T04:14:52.954Z,61.91
2018-09-15T04:17:21.508Z,61.03
2018-09-15T04:19:50.079Z,60.80
2018-09-15T04:22:18.726Z,60.85
2018-09-15T04:24:47.292Z,60.71
2018-09-15T04:27:16.099Z,60.67
2018-09-15T04:29:45.335Z,60.29
2018-09-15T04:32:13.892Z,59.85
2018-09-15T04:34:42.516Z,59.85
2018-09-15T04:37:11.187Z,60.03
2018-09-15T04:39:39.748Z,60.39
2018-09-15T04:42:08.291Z,59.84
2018-09-15T04:44:36.935Z,60.40
2018-09-15T04:47:05.519Z,60.57
2018-09-15T04:49:34.084Z,60.66
2018-09-15T04:52:02.696Z,60.65
2018-09-15T04:54:31.283Z,59.96
2018-09-15T04:56:59.823Z,59.94
2018-09-15T04:59:28.487Z,60.58
2018-09-15T05:01:57.059Z,60.63
2018-09-15T05:04:25.619Z,60.12
2018-09-15T05:06:54.295Z,60.46
2018-09-15T05:09:22.843Z,60.38
2018-09-15T05:11:51.412Z,59.55
2018-09-15T05:14:20.083Z,59.37
2018-09-15T05:16:48.644Z,58.92
2018-09-15T05:19:17.187Z,58.61
2018-09-15T05:21:45.843Z,58.01
2018-09-15T05:24:14.468Z,58.22
2018-09-15T05:26:43.019Z,58.34
2018-09-15T05:29:11.723Z,57.84
2018-09-15T05:31:40.312Z,58.30
2018-09-15T05:34:08.863Z,58.03
2018-09-15T05:36:37.499Z,57.57
2018-09-15T05:39:09.497Z,58.11
2018-09-15T05:41:38.180Z,57.91
2018-09-15T05:44:06.739Z,57.82
2018-09-15T05:46:35.287Z,58.16
2018-09-15T05:49:03.871Z,58.29
2018-09-15T05:51:32.680Z,58.69
2018-09-15T05:54:01.267Z,58.04
2018-09-15T05:56:30.220Z,57.85
2018-09-15T05:58:58.787Z,58.26
2018-09-15T06:01:27.405Z,57.68
2018-09-15T06:03:56.207Z,57.79
2018-09-15T06:06:24.767Z,57.81
2018-09-15T06:08:53.316Z,56.69
2018-09-15T06:11:21.981Z,56.13
2018-09-15T06:13:50.612Z,55.67
2018-09-15T06:16:19.151Z,54.71
2018-09-15T06:18:47.775Z,54.83
2018-09-15T06:21:16.331Z,54.73
2018-09-15T06:23:44.881Z,54.25
2018-09-15T06:26:14.267Z,53.43
2018-09-15T06:28:43.204Z,52.54
2018-09-15T06:31:11.753Z,51.79
2018-09-15T06:33:40.353Z,51.50
2018-09-15T06:36:08.935Z,50.05
2018-09-15T06:38:37.492Z,49.56
2018-09-15T06:41:06.107Z,47.35
2018-09-15T06:43:34.659Z,46.84
2018-09-15T06:46:03.224Z,46.37
2018-09-15T06:48:32.235Z,46.56
2018-09-15T06:51:00.794Z,45.82
2018-09-15T06:53:29.367Z,46.50
2018-09-15T06:55:58.047Z,45.82
2018-09-15T06:58:26.603Z,45.93
2018-09-15T07:00:55.233Z,45.11
2018-09-15T07:03:23.808Z,45.03
2018-09-15T07:05:52.368Z,45.02
2018-09-15T07:08:20.923Z,44.11
2018-09-15T07:10:49.543Z,43.51
2018-09-15T07:13:18.106Z,42.75
2018-09-15T07:15:46.667Z,42.77
2018-09-15T07:18:15.464Z,41.13
2018-09-15T07:20:44.791Z,40.90
2018-09-15T07:23:13.351Z,41.39
2018-09-15T07:25:42.079Z,40.35
2018-09-15T07:28:10.651Z,41.36
2018-09-15T07:30:39.219Z,39.15
2018-09-15T07:33:07.911Z,38.89
2018-09-15T07:35:37.247Z,38.44
2018-09-15T07:38:05.915Z,35.80
2018-09-15T07:40:34.547Z,35.19
2018-09-15T07:43:03.115Z,34.25
2018-09-15T07:45:31.652Z,33.06
2018-09-15T07:48:00.243Z,32.91
2018-09-15T07:50:28.791Z,33.64
2018-09-15T07:52:57.445Z,32.70
2018-09-15T07:55:26.023Z,32.70
2018-09-15T07:57:54.766Z,32.10
2018-09-15T08:00:23.159Z,30.69
2018-09-15T08:02:51.751Z,30.54
2018-09-15T08:05:20.325Z,31.53
2018-09-15T08:07:48.876Z,30.94
2018-09-15T08:10:17.539Z,28.94
2018-09-15T08:12:46.087Z,30.00
2018-09-15T08:15:14.643Z,30.29
2018-09-15T08:17:43.216Z,28.85
2018-09-15T08:20:11.786Z,28.12
2018-09-15T08:22:40.344Z,28.87
2018-09-15T08:25:09.850Z,29.20
2018-09-15T08:27:38.490Z,29.95
2018-09-15T08:30:07.086Z,29.93
2018-09-15T08:32:35.688Z,29.66
2018-09-15T08:35:04.260Z,29.35
2018-09-15T08:37:32.835Z,29.68
2018-09-15T08:40:01.411Z,29.07
2018-09-15T08:42:29.963Z,30.83
2018-09-15T08:44:58.583Z,30.72
2018-09-15T08:47:27.287Z,29.67
2018-09-15T08:49:55.836Z,28.26
2018-09-15T08:52:24.394Z,28.02
2018-09-15T08:54:53.087Z,27.18
2018-09-15T08:57:21.645Z,28.63
2018-09-15T08:59:50.202Z,27.42
2018-09-15T09:02:18.820Z,27.09
2018-09-15T09:04:47.411Z,27.96
2018-09-15T09:07:15.960Z,29.04
2018-09-15T09:09:44.644Z,28.69
2018-09-15T09:12:13.208Z,28.93
2018-09-15T09:14:41.759Z,29.65
2018-09-15T09:17:10.437Z,29.39
2018-09-15T09:19:38.995Z,28.40
2018-09-15T09:22:07.544Z,27.99
2018-09-15T09:24:36.126Z,27.10
2018-09-15T09:27:04.683Z,27.07
2018-09-15T09:29:33.239Z,26.87
2018-09-15T09:32:01.847Z,26.47
2018-09-15T09:34:30.391Z,27.01
2018-09-15T09:36:58.931Z,27.79
2018-09-15T09:39:27.648Z,29.66
2018-09-15T09:41:56.203Z,30.50
2018-09-15T09:44:24.752Z,31.47
2018-09-15T09:46:53.435Z,32.19
2018-09-15T09:49:21.998Z,33.12
2018-09-15T09:51:50.560Z,32.53
2018-09-15T09:54:19.172Z,31.62
2018-09-15T09:56:47.744Z,28.70
2018-09-15T09:59:16.292Z,27.24
2018-09-15T10:01:50.019Z,25.69
2018-09-15T10:04:18.597Z,26.43
2018-09-15T10:06:47.140Z,27.52
2018-09-15T10:09:15.731Z,26.49
2018-09-15T10:11:44.316Z,27.13
2018-09-15T10:14:12.875Z,28.77
2018-09-15T10:16:41.581Z,29.38
2018-09-15T10:19:10.132Z,31.83
2018-09-15T10:21:38.778Z,32.76
2018-09-15T10:24:07.719Z,30.97
2018-09-15T10:26:36.268Z,29.59
2018-09-15T10:29:04.834Z,27.81
2018-09-15T10:31:33.455Z,26.03
2018-09-15T10:34:02.011Z,25.92
2018-09-15T10:36:30.568Z,25.55
2018-09-15T10:38:59.251Z,25.74
2018-09-15T10:41:27.796Z,25.28
2018-09-15T10:43:56.365Z,25.09
2018-09-15T10:46:25.044Z,24.05
2018-09-15T10:48:53.607Z,24.83
2018-09-15T10:51:22.194Z,27.03
2018-09-15T10:53:51.255Z,27.08
2018-09-15T10:56:19.831Z,26.12
2018-09-15T10:58:48.387Z,27.53
2018-09-15T11:01:16.999Z,27.77
2018-09-15T11:03:45.555Z,27.70
2018-09-15T11:06:14.104Z,29.80
2018-09-15T11:08:42.853Z,30.17
2018-09-15T11:11:11.411Z,30.52
2018-09-15T11:13:40.043Z,31.06
2018-09-15T11:16:08.667Z,30.91
2018-09-15T11:18:37.219Z,30.66
2018-09-15T11:21:05.879Z,28.52
2018-09-15T11:23:34.487Z,24.63
2018-09-15T11:26:03.058Z,22.28
2018-09-15T11:28:31.618Z,22.37
2018-09-15T11:31:00.271Z,22.21
2018-09-15T11:33:28.824Z,23.28
2018-09-15T11:35:57.382Z,22.04
2018-09-15T11:38:25.995Z,20.89
2018-09-15T11:40:54.546Z,19.41
2018-09-15T11:43:23.111Z,20.83
2018-09-15T11:45:51.702Z,19.87
2018-09-15T11:48:20.285Z,18.94
2018-09-15T11:50:48.876Z,17.59
2018-09-15T11:53:17.619Z,15.46
2018-09-15T11:55:46.187Z,14.96
2018-09-15T11:58:14.754Z,13.51
2018-09-15T12:00:46.999Z,13.84
2018-09-15T12:03:15.567Z,15.84
2018-09-15T12:05:44.127Z,18.73
2018-09-15T12:08:12.707Z,21.50
2018-09-15T12:10:41.273Z,22.98
2018-09-15T12:13:10.296Z,24.26
2018-09-15T12:15:38.991Z,25.55
2018-09-15T12:18:07.555Z,26.09
2018-09-15T12:20:36.095Z,27.97
2018-09-15T12:23:05.092Z,28.11
2018-09-15T12:25:33.636Z,28.35
2018-09-15T12:28:02.191Z,28.79
2018-09-15T12:30:30.881Z,29.18
2018-09-15T12:32:59.452Z,28.78
2018-09-15T12:35:28.030Z,29.25
2018-09-15T12:37:56.703Z,28.65
2018-09-15T12:40:25.264Z,28.25
2018-09-15T12:42:54.447Z,29.29
2018-09-15T12:45:23.114Z,29.50
2018-09-15T12:47:51.608Z,29.25
2018-09-15T12:50:20.175Z,30.30
2018-09-15T12:52:48.803Z,29.61
2018-09-15T12:55:17.414Z,29.93
2018-09-15T12:57:46.411Z,30.74
2018-09-15T13:00:15.102Z,29.33
2018-09-15T13:02:43.651Z,29.47
2018-09-15T13:05:12.268Z,29.56
2018-09-15T13:07:40.851Z,29.58
2018-09-15T13:10:09.456Z,30.81
2018-09-15T13:12:38.012Z,30.25
2018-09-15T13:15:06.720Z,30.42
2018-09-15T13:17:35.283Z,29.84
2018-09-15T13:20:03.839Z,28.77
2018-09-15T13:22:32.515Z,29.93
2018-09-15T13:25:01.071Z,29.24
2018-09-15T13:27:29.649Z,29.12
2018-09-15T13:29:58.378Z,28.84
2018-09-15T13:32:26.835Z,28.16
2018-09-15T13:34:56.328Z,29.12
2018-09-15T13:37:24.995Z,29.18
2018-09-15T13:39:53.559Z,28.92
2018-09-15T13:42:22.124Z,29.03
2018-09-15T13:44:50.797Z,28.54
2018-09-15T13:47:19.406Z,28.81
2018-09-15T13:49:47.973Z,29.08
2018-09-15T13:52:16.879Z,28.72
2018-09-15T13:54:45.566Z,26.85
2018-09-15T13:57:14.115Z,28.00
2018-09-15T13:59:42.727Z,28.54
2018-09-15T14:02:11.300Z,28.62
2018-09-15T14:04:39.933Z,29.44
2018-09-15T14:07:08.539Z,29.35
2018-09-15T14:09:43.474Z,29.50
2018-09-15T14:12:05.735Z,29.29
2018-09-15T14:14:34.435Z,29.67
2018-09-15T14:17:03.062Z,30.85
2018-09-15T14:19:31.604Z,30.30
2018-09-15T14:22:00.581Z,29.78
2018-09-15T14:24:29.167Z,29.87
2018-09-15T14:26:57.742Z,29.97
2018-09-15T14:29:26.372Z,29.19
2018-09-15T14:31:55.134Z,30.69
2018-09-15T14:34:23.749Z,29.72
2018-09-15T14:36:52.673Z,29.31
2018-09-15T14:39:21.670Z,30.15
2018-09-15T14:41:50.248Z,30.64
2018-09-15T14:44:18.861Z,30.08
2018-09-15T14:46:47.432Z,30.44
2018-09-15T14:49:16.008Z,30.30
2018-09-15T14:51:44.708Z,30.61
2018-09-15T14:54:13.275Z,30.71
2018-09-15T14:56:41.857Z,30.77
2018-09-15T14:59:10.852Z,30.38
2018-09-15T15:01:39.422Z,31.28
2018-09-15T15:04:07.998Z,31.15
2018-09-15T15:06:36.608Z,31.00
2018-09-15T15:09:07.674Z,31.33
2018-09-15T15:11:36.319Z,30.85
2018-09-15T15:14:04.924Z,30.71
2018-09-15T15:16:33.492Z,30.85
2018-09-15T15:19:02.187Z,31.42
2018-09-15T15:21:30.752Z,30.67
2018-09-15T15:23:59.326Z,30.78
2018-09-15T15:26:28.084Z,30.45
2018-09-15T15:28:56.608Z,31.27
2018-09-15T15:31:25.182Z,31.13
2018-09-15T15:33:53.771Z,31.38
2018-09-15T15:36:22.391Z,31.26
2018-09-15T15:38:50.947Z,31.51
2018-09-15T15:41:19.622Z,31.68
2018-09-15T15:43:48.243Z,32.17
2018-09-15T15:46:16.768Z,31.08
2018-09-15T15:48:45.360Z,31.34
2018-09-15T15:51:13.965Z,30.70
2018-09-15T15:53:42.559Z,31.49
2018-09-15T15:56:11.200Z,31.09
2018-09-15T15:58:39.860Z,30.97
2018-09-15T16:01:08.347Z,31.54
2018-09-15T16:03:36.948Z,31.83
2018-09-15T16:06:05.515Z,32.16
2018-09-15T16:08:34.083Z,32.03
2018-09-15T16:11:02.722Z,32.54
2018-09-15T16:13:31.257Z,32.06
2018-09-15T16:16:00.415Z,32.30
2018-09-15T16:18:29.014Z,32.29
2018-09-15T16:20:57.572Z,31.99
2018-09-15T16:23:26.135Z,32.35
2018-09-15T16:25:54.951Z,32.53
2018-09-15T16:28:23.515Z,32.56
2018-09-15T16:30:52.064Z,32.66
2018-09-15T16:33:20.734Z,31.90
2018-09-15T16:35:49.287Z,32.17
2018-09-15T16:38:17.912Z,32.43
2018-09-15T16:40:46.707Z,32.08
2018-09-15T16:43:15.275Z,32.42
2018-09-15T16:45:44.003Z,32.32
2018-09-15T16:48:12.706Z,32.67
2018-09-15T16:50:41.259Z,33.25
2018-09-15T16:53:09.812Z,32.83
2018-09-15T16:55:38.454Z,32.70
2018-09-15T16:58:07.019Z,32.85
2018-09-15T17:00:35.599Z,33.41
2018-09-15T17:03:04.271Z,33.56
2018-09-15T17:05:32.843Z,33.16
2018-09-15T17:08:01.412Z,33.61
2018-09-15T17:10:30.008Z,33.75
2018-09-15T17:12:58.568Z,33.72
2018-09-15T17:15:27.133Z,34.50
2018-09-15T17:17:55.811Z,34.20
2018-09-15T17:20:24.412Z,34.00
2018-09-15T17:22:53.039Z,34.09
2018-09-15T17:25:21.700Z,34.91
2018-09-15T17:27:50.235Z,34.92
2018-09-15T17:30:18.802Z,34.98
2018-09-15T17:32:47.387Z,35.11
2018-09-15T17:35:15.950Z,35.50
2018-09-15T17:37:44.514Z,35.89
2018-09-15T17:40:13.175Z,36.06
2018-09-15T17:42:41.747Z,35.85
2018-09-15T17:45:10.326Z,35.96
2018-09-15T17:47:39.007Z,35.81
2018-09-15T17:50:07.619Z,35.39
2018-09-15T17:52:36.213Z,36.15
2018-09-15T17:55:05.440Z,36.14
2018-09-15T17:57:34.020Z,35.84
2018-09-15T18:00:02.594Z,36.41
2018-09-15T18:02:31.275Z,36.18
2018-09-15T18:04:59.831Z,36.82
2018-09-15T18:07:28.392Z,36.99
2018-09-15T18:09:57.102Z,37.31
2018-09-15T18:12:25.711Z,37.78
2018-09-15T18:14:54.262Z,37.32
2018-09-15T18:17:22.991Z,37.78
2018-09-15T18:19:51.527Z,37.21
2018-09-15T18:22:20.076Z,37.61
2018-09-15T18:24:48.755Z,37.95
2018-09-15T18:27:17.331Z,37.13
2018-09-15T18:29:45.876Z,37.08
2018-09-15T18:32:15.081Z,37.89
2018-09-15T18:34:43.953Z,37.92
2018-09-15T18:37:12.505Z,38.01
2018-09-15T18:39:41.174Z,37.83
2018-09-15T18:42:09.719Z,38.55
2018-09-15T18:44:38.272Z,38.88
2018-09-15T18:47:06.876Z,38.24
2018-09-15T18:49:35.435Z,38.40
2018-09-15T18:52:03.988Z,39.14
2018-09-15T18:54:32.707Z,39.09
2018-09-15T18:57:01.287Z,39.36
2018-09-15T18:59:29.833Z,39.54
2018-09-15T19:01:58.454Z,39.07
2018-09-15T19:04:27.003Z,38.87
2018-09-15T19:06:55.559Z,39.68
2018-09-15T19:09:24.222Z,39.62
2018-09-15T19:11:52.783Z,39.99
2018-09-15T19:14:21.350Z,39.94
2018-09-15T19:16:50.020Z,40.07
2018-09-15T19:19:19.347Z,40.42
2018-09-15T19:21:47.909Z,40.99
2018-09-15T19:24:16.896Z,40.80
2018-09-15T19:26:45.475Z,41.37
2018-09-15T19:29:14.012Z,41.25
2018-09-15T19:31:42.715Z,41.78
2018-09-15T19:34:11.276Z,41.95
2018-09-15T19:36:39.840Z,42.16
2018-09-15T19:39:11.884Z,41.91
2018-09-15T19:41:40.423Z,41.87
2018-09-15T19:44:08.991Z,42.51
2018-09-15T19:46:38.205Z,42.55
2018-09-15T19:49:07.755Z,43.62
2018-09-15T19:51:36.307Z,43.88
2018-09-15T19:54:05.379Z,43.22
2018-09-15T19:56:33.947Z,43.31
2018-09-15T19:59:02.575Z,43.93
2018-09-15T20:01:31.159Z,44.35
2018-09-15T20:03:59.704Z,43.88
2018-09-15T20:06:28.264Z,44.47
2018-09-15T20:08:56.855Z,44.83
2018-09-15T20:11:25.407Z,44.85
2018-09-15T20:13:53.967Z,45.64
2018-09-15T20:16:21.384Z,45.13
2018-09-15T20:18:48.690Z,45.49
2018-09-15T20:21:16.012Z,45.65
2018-09-15T20:23:44.600Z,45.46
2018-09-15T20:26:13.168Z,45.67
2018-09-15T20:28:41.720Z,45.58
2018-09-15T20:31:10.355Z,45.85
2018-09-15T20:33:38.931Z,46.42
2018-09-15T20:36:07.667Z,46.31
2018-09-15T20:38:36.259Z,46.96
2018-09-15T20:41:04.815Z,46.74
2018-09-15T20:43:33.363Z,46.64
2018-09-15T20:46:01.971Z,46.85
2018-09-15T20:48:30.582Z,46.84
2018-09-15T20:50:59.111Z,47.41
2018-09-15T20:53:27.825Z,47.40
2018-09-15T20:55:56.463Z,47.82
2018-09-15T20:58:25.048Z,47.76
2018-09-15T21:00:53.971Z,48.18
2018-09-15T21:03:22.523Z,47.83
2018-09-15T21:05:51.129Z,47.93
2018-09-15T21:08:20.312Z,48.05
2018-09-15T21:10:48.887Z,48.47
2018-09-15T21:13:17.469Z,48.22
2018-09-15T21:15:46.145Z,48.99
2018-09-15T21:18:14.720Z,48.91
2018-09-15T21:20:43.436Z,49.65
2018-09-15T21:23:12.068Z,49.59
2018-09-15T21:25:40.622Z,49.93
2018-09-15T21:28:09.183Z,50.10
2018-09-15T21:30:37.871Z,50.23
2018-09-15T21:33:06.656Z,50.30
2018-09-15T21:35:35.220Z,50.43
2018-09-15T21:38:03.896Z,50.52
2018-09-15T21:40:32.476Z,50.21
2018-09-15T21:43:01.034Z,50.07
2018-09-15T21:45:29.706Z,50.18
2018-09-15T21:47:58.299Z,50.58
2018-09-15T21:50:26.855Z,50.64
2018-09-15T21:52:55.488Z,50.62
2018-09-15T21:55:24.092Z,51.04
2018-09-15T21:57:52.797Z,51.08
2018-09-15T22:00:21.524Z,51.10
2018-09-15T22:02:50.093Z,51.25
2018-09-15T22:05:18.668Z,51.19
2018-09-15T22:07:47.331Z,51.43
2018-09-15T22:10:15.919Z,51.33
2018-09-15T22:12:44.473Z,51.45
2018-09-15T22:15:27.939Z,51.74
2018-09-15T22:17:58.186Z,52.07
2018-09-15T22:20:27.000Z,52.08
2018-09-15T22:22:55.595Z,52.40
2018-09-15T22:25:24.151Z,52.47
2018-09-15T22:27:52.812Z,52.71
2018-09-15T22:30:21.390Z,52.94
2018-09-15T22:32:49.943Z,52.84
2018-09-15T22:35:18.531Z,53.13
2018-09-15T22:37:47.084Z,53.15
2018-09-15T22:40:15.639Z,53.67
2018-09-15T22:42:44.633Z,53.29
2018-09-15T22:45:13.183Z,53.76
2018-09-15T22:47:41.731Z,53.55
2018-09-15T22:50:10.402Z,53.77
2018-09-15T22:52:39.022Z,54.02
2018-09-15T22:55:07.620Z,53.83
2018-09-15T22:57:36.335Z,53.99
2018-09-15T23:00:04.959Z,54.20
2018-09-15T23:02:33.531Z,54.59
2018-09-15T23:05:02.135Z,54.73
2018-09-15T23:07:30.699Z,54.32
2018-09-15T23:09:59.247Z,54.73
2018-09-15T23:12:27.833Z,54.78
2018-09-15T23:14:56.379Z,55.21
2018-09-15T23:17:24.955Z,55.38
2018-09-15T23:19:53.632Z,55.41
2018-09-15T23:22:22.183Z,55.13
2018-09-15T23:24:50.770Z,55.12
2018-09-15T23:27:19.347Z,55.48
2018-09-15T23:29:47.899Z,55.11
2018-09-15T23:32:16.467Z,55.49
2018-09-15T23:34:45.400Z,55.41
2018-09-15T23:37:13.974Z,56.05
2018-09-15T23:39:42.543Z,56.25
2018-09-15T23:42:11.131Z,56.16
2018-09-15T23:44:39.787Z,55.95
2018-09-15T23:47:08.340Z,56.07
2018-09-15T23:49:36.991Z,56.04
2018-09-15T23:52:05.539Z,55.96
2018-09-15T23:54:34.098Z,55.99
2018-09-15T23:57:02.796Z,56.65
2018-09-15T23:59:31.343Z,56.37
